sensor_id;sensor_type;location;lat;lon;timestamp;P1;durP1;ratioP1;P2;durP2;ratioP2
14994;SDS011;7593;49.006;8.372;2022-08-02T00:02:26;2.38;;;1.50;;
14994;SDS011;7593;49.006;8.372;2022-08-02T00:04:53;2.67;;;1.35;;
14994;SDS011;7593;49.006;8.372;2022-08-02T00:07:21;1.50;;;1.20;;
14994;SDS011;7593;49.006;8.372;2022-08-02T00:09:48;4.60;;;1.65;;
14994;SDS011;7593;49.006;8.372;2022-08-02T00:12:15;2.35;;;1.40;;
14994;SDS011;7593;49.006;8.372;2022-08-02T00:14:42;5.03;;;1.63;;
14994;SDS011;7593;49.006;8.372;2022-08-02T00:17:09;6.82;;;1.92;;
14994;SDS011;7593;49.006;8.372;2022-08-02T00:19:36;3.08;;;1.50;;
14994;SDS011;7593;49.006;8.372;2022-08-02T00:22:02;3.17;;;1.75;;
14994;SDS011;7593;49.006;8.372;2022-08-02T00:24:31;4.22;;;1.65;;
14994;SDS011;7593;49.006;8.372;2022-08-02T00:26:58;7.90;;;1.95;;
14994;SDS011;7593;49.006;8.372;2022-08-02T00:29:27;4.97;;;1.50;;
14994;SDS011;7593;49.006;8.372;2022-08-02T00:31:54;3.58;;;1.48;;
14994;SDS011;7593;49.006;8.372;2022-08-02T00:34:21;3.75;;;1.75;;
14994;SDS011;7593;49.006;8.372;2022-08-02T00:36:49;5.20;;;1.80;;
14994;SDS011;7593;49.006;8.372;2022-08-02T00:39:16;2.35;;;1.40;;
14994;SDS011;7593;49.006;8.372;2022-08-02T00:41:48;4.00;;;1.60;;
14994;SDS011;7593;49.006;8.372;2022-08-02T00:44:17;9.50;;;2.10;;
14994;SDS011;7593;49.006;8.372;2022-08-02T00:46:46;4.97;;;1.80;;
14994;SDS011;7593;49.006;8.372;2022-08-02T00:49:13;4.53;;;1.63;;
14994;SDS011;7593;49.006;8.372;2022-08-02T00:51:40;3.35;;;1.50;;
14994;SDS011;7593;49.006;8.372;2022-08-02T00:54:07;4.18;;;1.42;;
14994;SDS011;7593;49.006;8.372;2022-08-02T00:56:34;1.83;;;1.38;;
14994;SDS011;7593;49.006;8.372;2022-08-02T00:59:02;3.97;;;1.50;;
14994;SDS011;7593;49.006;8.372;2022-08-02T01:01:29;2.08;;;1.70;;
14994;SDS011;7593;49.006;8.372;2022-08-02T01:04:03;6.65;;;1.73;;
14994;SDS011;7593;49.006;8.372;2022-08-02T01:06:31;6.22;;;2.20;;
14994;SDS011;7593;49.006;8.372;2022-08-02T01:08:58;2.22;;;1.25;;
14994;SDS011;7593;49.006;8.372;2022-08-02T01:11:25;4.75;;;1.50;;
14994;SDS011;7593;49.006;8.372;2022-08-02T01:13:52;5.72;;;1.60;;
14994;SDS011;7593;49.006;8.372;2022-08-02T01:16:23;7.13;;;1.90;;
14994;SDS011;7593;49.006;8.372;2022-08-02T01:18:57;4.68;;;1.70;;
14994;SDS011;7593;49.006;8.372;2022-08-02T01:21:32;1.90;;;1.40;;
14994;SDS011;7593;49.006;8.372;2022-08-02T01:27:00;6.20;;;1.77;;
14994;SDS011;7593;49.006;8.372;2022-08-02T01:29:40;5.00;;;1.90;;
14994;SDS011;7593;49.006;8.372;2022-08-02T01:32:11;2.78;;;1.50;;
14994;SDS011;7593;49.006;8.372;2022-08-02T01:34:41;2.05;;;1.60;;
14994;SDS011;7593;49.006;8.372;2022-08-02T01:37:13;3.72;;;1.80;;
14994;SDS011;7593;49.006;8.372;2022-08-02T01:39:43;5.72;;;1.50;;
14994;SDS011;7593;49.006;8.372;2022-08-02T01:42:13;1.67;;;1.52;;
14994;SDS011;7593;49.006;8.372;2022-08-02T01:44:42;2.42;;;1.52;;
14994;SDS011;7593;49.006;8.372;2022-08-02T01:47:13;5.00;;;1.60;;
14994;SDS011;7593;49.006;8.372;2022-08-02T01:49:44;7.28;;;1.65;;
14994;SDS011;7593;49.006;8.372;2022-08-02T01:52:13;2.85;;;1.40;;
14994;SDS011;7593;49.006;8.372;2022-08-02T01:54:48;1.83;;;1.63;;
14994;SDS011;7593;49.006;8.372;2022-08-02T01:57:17;2.83;;;1.92;;
14994;SDS011;7593;49.006;8.372;2022-08-02T01:59:47;4.03;;;1.70;;
14994;SDS011;7593;49.006;8.372;2022-08-02T02:02:15;2.63;;;1.75;;
14994;SDS011;7593;49.006;8.372;2022-08-02T02:04:44;4.10;;;1.70;;
14994;SDS011;7593;49.006;8.372;2022-08-02T02:07:12;4.53;;;2.00;;
14994;SDS011;7593;49.006;8.372;2022-08-02T02:09:41;4.32;;;1.80;;
14994;SDS011;7593;49.006;8.372;2022-08-02T02:12:10;3.28;;;1.90;;
14994;SDS011;7593;49.006;8.372;2022-08-02T02:14:40;3.58;;;2.13;;
14994;SDS011;7593;49.006;8.372;2022-08-02T02:17:10;3.80;;;1.83;;
14994;SDS011;7593;49.006;8.372;2022-08-02T02:19:38;2.33;;;1.60;;
14994;SDS011;7593;49.006;8.372;2022-08-02T02:22:07;3.65;;;1.73;;
14994;SDS011;7593;49.006;8.372;2022-08-02T02:24:34;2.53;;;1.80;;
14994;SDS011;7593;49.006;8.372;2022-08-02T02:27:00;4.75;;;1.80;;
14994;SDS011;7593;49.006;8.372;2022-08-02T02:29:31;3.60;;;1.90;;
14994;SDS011;7593;49.006;8.372;2022-08-02T02:31:59;4.28;;;1.60;;
14994;SDS011;7593;49.006;8.372;2022-08-02T02:34:32;2.15;;;1.63;;
14994;SDS011;7593;49.006;8.372;2022-08-02T02:37:03;3.72;;;1.63;;
14994;SDS011;7593;49.006;8.372;2022-08-02T02:39:33;3.72;;;2.00;;
14994;SDS011;7593;49.006;8.372;2022-08-02T02:42:03;3.65;;;1.60;;
14994;SDS011;7593;49.006;8.372;2022-08-02T02:44:34;6.00;;;1.90;;
14994;SDS011;7593;49.006;8.372;2022-08-02T02:47:03;3.40;;;1.70;;
14994;SDS011;7593;49.006;8.372;2022-08-02T02:49:33;6.53;;;2.00;;
14994;SDS011;7593;49.006;8.372;2022-08-02T02:52:01;3.42;;;1.90;;
14994;SDS011;7593;49.006;8.372;2022-08-02T02:54:28;4.30;;;1.92;;
14994;SDS011;7593;49.006;8.372;2022-08-02T02:56:56;4.80;;;1.80;;
14994;SDS011;7593;49.006;8.372;2022-08-02T02:59:23;2.15;;;1.90;;
14994;SDS011;7593;49.006;8.372;2022-08-02T03:01:51;4.22;;;2.20;;
14994;SDS011;7593;49.006;8.372;2022-08-02T03:04:19;3.03;;;1.90;;
14994;SDS011;7593;49.006;8.372;2022-08-02T03:06:48;3.55;;;1.90;;
14994;SDS011;7593;49.006;8.372;2022-08-02T03:09:15;2.13;;;1.90;;
14994;SDS011;7593;49.006;8.372;2022-08-02T03:11:42;2.10;;;1.90;;
14994;SDS011;7593;49.006;8.372;2022-08-02T03:14:09;1.98;;;1.88;;
14994;SDS011;7593;49.006;8.372;2022-08-02T03:16:40;2.67;;;1.83;;
14994;SDS011;7593;49.006;8.372;2022-08-02T03:19:09;2.03;;;1.83;;
14994;SDS011;7593;49.006;8.372;2022-08-02T03:21:36;4.75;;;2.00;;
14994;SDS011;7593;49.006;8.372;2022-08-02T03:24:05;4.20;;;2.03;;
14994;SDS011;7593;49.006;8.372;2022-08-02T03:26:32;4.40;;;2.17;;
14994;SDS011;7593;49.006;8.372;2022-08-02T03:29:00;2.90;;;1.92;;
14994;SDS011;7593;49.006;8.372;2022-08-02T03:31:27;3.33;;;2.13;;
14994;SDS011;7593;49.006;8.372;2022-08-02T03:33:54;3.28;;;2.17;;
14994;SDS011;7593;49.006;8.372;2022-08-02T03:36:22;2.25;;;2.03;;
14994;SDS011;7593;49.006;8.372;2022-08-02T03:38:52;2.92;;;2.30;;
14994;SDS011;7593;49.006;8.372;2022-08-02T03:41:21;4.25;;;2.22;;
14994;SDS011;7593;49.006;8.372;2022-08-02T03:43:49;2.35;;;2.10;;
14994;SDS011;7593;49.006;8.372;2022-08-02T03:46:17;3.92;;;2.40;;
14994;SDS011;7593;49.006;8.372;2022-08-02T03:48:46;5.22;;;2.60;;
14994;SDS011;7593;49.006;8.372;2022-08-02T03:51:15;4.95;;;2.70;;
14994;SDS011;7593;49.006;8.372;2022-08-02T03:53:42;6.38;;;2.92;;
14994;SDS011;7593;49.006;8.372;2022-08-02T03:56:10;4.10;;;3.03;;
14994;SDS011;7593;49.006;8.372;2022-08-02T03:58:38;5.55;;;3.25;;
14994;SDS011;7593;49.006;8.372;2022-08-02T04:01:05;4.50;;;4.10;;
14994;SDS011;7593;49.006;8.372;2022-08-02T04:03:32;5.70;;;4.38;;
14994;SDS011;7593;49.006;8.372;2022-08-02T04:05:58;5.88;;;5.28;;
14994;SDS011;7593;49.006;8.372;2022-08-02T04:08:25;5.78;;;4.90;;
14994;SDS011;7593;49.006;8.372;2022-08-02T04:10:52;9.27;;;4.65;;
14994;SDS011;7593;49.006;8.372;2022-08-02T04:13:36;5.07;;;4.68;;
14994;SDS011;7593;49.006;8.372;2022-08-02T04:16:07;8.00;;;4.40;;
14994;SDS011;7593;49.006;8.372;2022-08-02T04:18:39;4.78;;;3.83;;
14994;SDS011;7593;49.006;8.372;2022-08-02T04:21:10;3.75;;;3.20;;
14994;SDS011;7593;49.006;8.372;2022-08-02T04:23:40;3.95;;;3.45;;
14994;SDS011;7593;49.006;8.372;2022-08-02T04:26:08;3.40;;;2.88;;
14994;SDS011;7593;49.006;8.372;2022-08-02T04:28:36;5.93;;;3.10;;
14994;SDS011;7593;49.006;8.372;2022-08-02T04:31:05;7.22;;;3.20;;
14994;SDS011;7593;49.006;8.372;2022-08-02T04:33:33;7.18;;;2.90;;
14994;SDS011;7593;49.006;8.372;2022-08-02T04:36:00;3.72;;;2.70;;
14994;SDS011;7593;49.006;8.372;2022-08-02T04:38:27;3.88;;;2.35;;
14994;SDS011;7593;49.006;8.372;2022-08-02T04:40:54;5.43;;;2.35;;
14994;SDS011;7593;49.006;8.372;2022-08-02T04:43:22;3.72;;;2.42;;
14994;SDS011;7593;49.006;8.372;2022-08-02T04:45:51;2.95;;;2.70;;
14994;SDS011;7593;49.006;8.372;2022-08-02T04:48:18;4.38;;;2.67;;
14994;SDS011;7593;49.006;8.372;2022-08-02T04:50:45;3.50;;;2.80;;
14994;SDS011;7593;49.006;8.372;2022-08-02T04:53:12;4.47;;;2.70;;
14994;SDS011;7593;49.006;8.372;2022-08-02T04:55:39;3.10;;;2.50;;
14994;SDS011;7593;49.006;8.372;2022-08-02T04:58:06;4.47;;;2.42;;
14994;SDS011;7593;49.006;8.372;2022-08-02T05:00:33;4.18;;;2.03;;
14994;SDS011;7593;49.006;8.372;2022-08-02T05:03:01;5.18;;;2.40;;
14994;SDS011;7593;49.006;8.372;2022-08-02T05:05:28;5.65;;;2.50;;
14994;SDS011;7593;49.006;8.372;2022-08-02T05:07:55;7.30;;;2.70;;
14994;SDS011;7593;49.006;8.372;2022-08-02T05:10:22;5.65;;;2.88;;
14994;SDS011;7593;49.006;8.372;2022-08-02T05:12:49;3.65;;;2.63;;
14994;SDS011;7593;49.006;8.372;2022-08-02T05:15:16;5.45;;;3.10;;
14994;SDS011;7593;49.006;8.372;2022-08-02T05:17:43;4.28;;;2.70;;
14994;SDS011;7593;49.006;8.372;2022-08-02T05:20:12;3.47;;;2.90;;
14994;SDS011;7593;49.006;8.372;2022-08-02T05:22:39;3.90;;;2.88;;
14994;SDS011;7593;49.006;8.372;2022-08-02T05:25:07;5.80;;;2.72;;
14994;SDS011;7593;49.006;8.372;2022-08-02T05:27:34;5.30;;;3.30;;
14994;SDS011;7593;49.006;8.372;2022-08-02T05:30:02;4.75;;;2.80;;
14994;SDS011;7593;49.006;8.372;2022-08-02T05:32:29;5.50;;;3.10;;
14994;SDS011;7593;49.006;8.372;2022-08-02T05:34:56;6.53;;;3.28;;
14994;SDS011;7593;49.006;8.372;2022-08-02T05:37:26;4.03;;;3.00;;
14994;SDS011;7593;49.006;8.372;2022-08-02T05:39:53;4.53;;;3.25;;
14994;SDS011;7593;49.006;8.372;2022-08-02T05:42:19;3.33;;;3.03;;
14994;SDS011;7593;49.006;8.372;2022-08-02T05:44:46;3.50;;;3.20;;
14994;SDS011;7593;49.006;8.372;2022-08-02T05:47:13;7.45;;;3.50;;
14994;SDS011;7593;49.006;8.372;2022-08-02T05:49:40;8.90;;;3.38;;
14994;SDS011;7593;49.006;8.372;2022-08-02T05:52:08;6.40;;;3.80;;
14994;SDS011;7593;49.006;8.372;2022-08-02T05:54:42;6.03;;;3.42;;
14994;SDS011;7593;49.006;8.372;2022-08-02T05:57:15;4.72;;;3.75;;
14994;SDS011;7593;49.006;8.372;2022-08-02T05:59:54;5.75;;;3.75;;
14994;SDS011;7593;49.006;8.372;2022-08-02T06:02:33;4.60;;;3.47;;
14994;SDS011;7593;49.006;8.372;2022-08-02T06:05:18;5.93;;;3.67;;
14994;SDS011;7593;49.006;8.372;2022-08-02T06:07:46;4.32;;;3.92;;
14994;SDS011;7593;49.006;8.372;2022-08-02T06:10:17;5.00;;;3.53;;
14994;SDS011;7593;49.006;8.372;2022-08-02T06:12:47;8.82;;;4.10;;
14994;SDS011;7593;49.006;8.372;2022-08-02T06:15:17;6.90;;;3.95;;
14994;SDS011;7593;49.006;8.372;2022-08-02T06:17:45;4.65;;;3.65;;
14994;SDS011;7593;49.006;8.372;2022-08-02T06:20:13;5.82;;;4.10;;
14994;SDS011;7593;49.006;8.372;2022-08-02T06:22:40;6.80;;;3.92;;
14994;SDS011;7593;49.006;8.372;2022-08-02T06:25:09;4.80;;;3.70;;
14994;SDS011;7593;49.006;8.372;2022-08-02T06:27:37;7.43;;;3.83;;
14994;SDS011;7593;49.006;8.372;2022-08-02T06:30:05;4.57;;;3.70;;
14994;SDS011;7593;49.006;8.372;2022-08-02T06:32:33;5.80;;;3.60;;
14994;SDS011;7593;49.006;8.372;2022-08-02T06:35:00;4.20;;;3.42;;
14994;SDS011;7593;49.006;8.372;2022-08-02T06:37:30;6.05;;;3.92;;
14994;SDS011;7593;49.006;8.372;2022-08-02T06:40:05;8.23;;;3.65;;
14994;SDS011;7593;49.006;8.372;2022-08-02T06:42:40;5.28;;;3.72;;
14994;SDS011;7593;49.006;8.372;2022-08-02T06:45:13;5.00;;;3.70;;
14994;SDS011;7593;49.006;8.372;2022-08-02T06:47:40;4.10;;;3.70;;
14994;SDS011;7593;49.006;8.372;2022-08-02T06:50:08;7.25;;;3.47;;
14994;SDS011;7593;49.006;8.372;2022-08-02T06:52:35;7.03;;;3.60;;
14994;SDS011;7593;49.006;8.372;2022-08-02T06:55:02;8.15;;;3.47;;
14994;SDS011;7593;49.006;8.372;2022-08-02T06:57:30;6.18;;;3.35;;
14994;SDS011;7593;49.006;8.372;2022-08-02T06:59:59;5.53;;;3.22;;
14994;SDS011;7593;49.006;8.372;2022-08-02T07:02:28;7.15;;;3.65;;
14994;SDS011;7593;49.006;8.372;2022-08-02T07:04:55;5.55;;;3.90;;
14994;SDS011;7593;49.006;8.372;2022-08-02T07:07:23;4.55;;;3.40;;
14994;SDS011;7593;49.006;8.372;2022-08-02T07:09:51;5.53;;;3.60;;
14994;SDS011;7593;49.006;8.372;2022-08-02T07:12:18;5.13;;;3.90;;
14994;SDS011;7593;49.006;8.372;2022-08-02T07:14:44;7.95;;;3.50;;
14994;SDS011;7593;49.006;8.372;2022-08-02T07:17:13;6.72;;;5.43;;
14994;SDS011;7593;49.006;8.372;2022-08-02T07:19:40;6.43;;;3.22;;
14994;SDS011;7593;49.006;8.372;2022-08-02T07:22:07;7.25;;;3.25;;
14994;SDS011;7593;49.006;8.372;2022-08-02T07:24:34;5.50;;;3.05;;
14994;SDS011;7593;49.006;8.372;2022-08-02T07:27:01;9.75;;;3.40;;
14994;SDS011;7593;49.006;8.372;2022-08-02T07:29:29;5.25;;;4.13;;
14994;SDS011;7593;49.006;8.372;2022-08-02T07:31:56;17.38;;;4.43;;
14994;SDS011;7593;49.006;8.372;2022-08-02T07:34:33;5.29;;;3.11;;
14994;SDS011;7593;49.006;8.372;2022-08-02T07:37:00;4.45;;;2.88;;
14994;SDS011;7593;49.006;8.372;2022-08-02T07:39:27;3.28;;;2.80;;
14994;SDS011;7593;49.006;8.372;2022-08-02T07:41:54;4.30;;;2.92;;
14994;SDS011;7593;49.006;8.372;2022-08-02T07:44:22;4.28;;;2.53;;
14994;SDS011;7593;49.006;8.372;2022-08-02T07:46:48;9.18;;;2.70;;
14994;SDS011;7593;49.006;8.372;2022-08-02T07:49:16;3.67;;;2.45;;
14994;SDS011;7593;49.006;8.372;2022-08-02T07:51:45;3.05;;;2.50;;
14994;SDS011;7593;49.006;8.372;2022-08-02T07:54:12;6.60;;;2.65;;
14994;SDS011;7593;49.006;8.372;2022-08-02T07:56:39;2.50;;;2.30;;
14994;SDS011;7593;49.006;8.372;2022-08-02T07:59:06;8.52;;;2.50;;
14994;SDS011;7593;49.006;8.372;2022-08-02T08:01:34;4.05;;;2.60;;
14994;SDS011;7593;49.006;8.372;2022-08-02T08:04:01;4.40;;;2.47;;
14994;SDS011;7593;49.006;8.372;2022-08-02T08:06:28;3.88;;;2.60;;
14994;SDS011;7593;49.006;8.372;2022-08-02T08:08:56;4.22;;;2.30;;
14994;SDS011;7593;49.006;8.372;2022-08-02T08:11:24;2.80;;;2.00;;
14994;SDS011;7593;49.006;8.372;2022-08-02T08:13:51;3.80;;;2.20;;
14994;SDS011;7593;49.006;8.372;2022-08-02T08:16:18;3.30;;;2.28;;
14994;SDS011;7593;49.006;8.372;2022-08-02T08:18:45;3.30;;;2.42;;
14994;SDS011;7593;49.006;8.372;2022-08-02T08:21:12;3.65;;;2.40;;
14994;SDS011;7593;49.006;8.372;2022-08-02T08:23:39;2.22;;;2.03;;
14994;SDS011;7593;49.006;8.372;2022-08-02T08:26:08;2.47;;;2.17;;
14994;SDS011;7593;49.006;8.372;2022-08-02T08:28:35;7.03;;;2.42;;
14994;SDS011;7593;49.006;8.372;2022-08-02T08:31:02;3.72;;;2.35;;
14994;SDS011;7593;49.006;8.372;2022-08-02T08:33:29;2.60;;;2.33;;
14994;SDS011;7593;49.006;8.372;2022-08-02T08:35:56;8.25;;;2.35;;
14994;SDS011;7593;49.006;8.372;2022-08-02T08:38:23;3.90;;;2.38;;
14994;SDS011;7593;49.006;8.372;2022-08-02T08:40:50;3.88;;;2.38;;
14994;SDS011;7593;49.006;8.372;2022-08-02T08:43:19;2.85;;;1.85;;
14994;SDS011;7593;49.006;8.372;2022-08-02T08:45:46;3.45;;;1.80;;
14994;SDS011;7593;49.006;8.372;2022-08-02T08:48:15;1.90;;;1.73;;
14994;SDS011;7593;49.006;8.372;2022-08-02T08:50:45;3.63;;;1.90;;
14994;SDS011;7593;49.006;8.372;2022-08-02T08:53:16;4.07;;;2.05;;
14994;SDS011;7593;49.006;8.372;2022-08-02T08:55:43;5.65;;;1.90;;
14994;SDS011;7593;49.006;8.372;2022-08-02T08:58:11;2.25;;;1.85;;
14994;SDS011;7593;49.006;8.372;2022-08-02T09:00:40;6.35;;;1.95;;
14994;SDS011;7593;49.006;8.372;2022-08-02T09:03:08;3.28;;;2.10;;
14994;SDS011;7593;49.006;8.372;2022-08-02T09:05:39;2.95;;;1.90;;
14994;SDS011;7593;49.006;8.372;2022-08-02T09:08:07;2.38;;;1.60;;
14994;SDS011;7593;49.006;8.372;2022-08-02T09:10:35;2.40;;;1.80;;
14994;SDS011;7593;49.006;8.372;2022-08-02T09:13:05;2.58;;;1.83;;
14994;SDS011;7593;49.006;8.372;2022-08-02T09:15:33;3.78;;;1.70;;
14994;SDS011;7593;49.006;8.372;2022-08-02T09:18:02;2.08;;;1.70;;
14994;SDS011;7593;49.006;8.372;2022-08-02T09:20:31;2.80;;;1.98;;
14994;SDS011;7593;49.006;8.372;2022-08-02T09:23:05;1.60;;;1.50;;
14994;SDS011;7593;49.006;8.372;2022-08-02T09:25:33;6.65;;;2.30;;
14994;SDS011;7593;49.006;8.372;2022-08-02T09:28:02;3.40;;;1.80;;
14994;SDS011;7593;49.006;8.372;2022-08-02T09:30:30;2.65;;;1.85;;
14994;SDS011;7593;49.006;8.372;2022-08-02T09:32:56;4.28;;;1.80;;
14994;SDS011;7593;49.006;8.372;2022-08-02T09:35:32;2.67;;;1.80;;
14994;SDS011;7593;49.006;8.372;2022-08-02T09:38:09;2.58;;;1.75;;
14994;SDS011;7593;49.006;8.372;2022-08-02T09:40:38;3.15;;;1.73;;
14994;SDS011;7593;49.006;8.372;2022-08-02T09:43:06;4.50;;;1.75;;
14994;SDS011;7593;49.006;8.372;2022-08-02T09:45:34;4.07;;;1.70;;
14994;SDS011;7593;49.006;8.372;2022-08-02T09:48:02;3.80;;;1.67;;
14994;SDS011;7593;49.006;8.372;2022-08-02T09:50:33;2.80;;;1.75;;
14994;SDS011;7593;49.006;8.372;2022-08-02T09:53:00;3.53;;;1.80;;
14994;SDS011;7593;49.006;8.372;2022-08-02T09:55:28;2.08;;;1.50;;
14994;SDS011;7593;49.006;8.372;2022-08-02T09:57:55;2.40;;;1.67;;
14994;SDS011;7593;49.006;8.372;2022-08-02T10:00:22;1.70;;;1.60;;
14994;SDS011;7593;49.006;8.372;2022-08-02T10:03:05;4.72;;;1.65;;
14994;SDS011;7593;49.006;8.372;2022-08-02T10:05:45;7.07;;;1.90;;
14994;SDS011;7593;49.006;8.372;2022-08-02T10:08:13;2.65;;;1.70;;
14994;SDS011;7593;49.006;8.372;2022-08-02T10:10:41;2.55;;;1.50;;
14994;SDS011;7593;49.006;8.372;2022-08-02T10:13:08;4.47;;;1.80;;
14994;SDS011;7593;49.006;8.372;2022-08-02T10:15:35;2.95;;;1.70;;
14994;SDS011;7593;49.006;8.372;2022-08-02T10:18:03;2.70;;;1.58;;
14994;SDS011;7593;49.006;8.372;2022-08-02T10:20:32;3.38;;;1.88;;
14994;SDS011;7593;49.006;8.372;2022-08-02T10:23:08;1.77;;;1.48;;
14994;SDS011;7593;49.006;8.372;2022-08-02T10:25:38;3.55;;;1.83;;
14994;SDS011;7593;49.006;8.372;2022-08-02T10:28:07;1.92;;;1.65;;
14994;SDS011;7593;49.006;8.372;2022-08-02T10:30:35;1.63;;;1.50;;
14994;SDS011;7593;49.006;8.372;2022-08-02T10:33:04;1.85;;;1.50;;
14994;SDS011;7593;49.006;8.372;2022-08-02T10:35:34;5.28;;;1.60;;
14994;SDS011;7593;49.006;8.372;2022-08-02T10:38:04;3.67;;;1.70;;
14994;SDS011;7593;49.006;8.372;2022-08-02T10:40:44;2.67;;;1.77;;
14994;SDS011;7593;49.006;8.372;2022-08-02T10:43:12;5.82;;;1.80;;
14994;SDS011;7593;49.006;8.372;2022-08-02T10:46:28;3.92;;;2.20;;
14994;SDS011;7593;49.006;8.372;2022-08-02T10:49:00;3.78;;;2.00;;
14994;SDS011;7593;49.006;8.372;2022-08-02T10:54:24;4.88;;;2.00;;
14994;SDS011;7593;49.006;8.372;2022-08-02T10:56:54;7.43;;;2.13;;
14994;SDS011;7593;49.006;8.372;2022-08-02T10:59:23;5.15;;;2.20;;
14994;SDS011;7593;49.006;8.372;2022-08-02T11:01:51;2.88;;;2.20;;
14994;SDS011;7593;49.006;8.372;2022-08-02T11:04:25;2.83;;;2.10;;
14994;SDS011;7593;49.006;8.372;2022-08-02T11:07:08;2.30;;;2.00;;
14994;SDS011;7593;49.006;8.372;2022-08-02T11:09:38;3.03;;;1.98;;
14994;SDS011;7593;49.006;8.372;2022-08-02T11:12:07;3.08;;;1.90;;
14994;SDS011;7593;49.006;8.372;2022-08-02T11:14:35;2.65;;;1.80;;
14994;SDS011;7593;49.006;8.372;2022-08-02T11:17:04;3.15;;;1.55;;
14994;SDS011;7593;49.006;8.372;2022-08-02T11:19:33;2.22;;;1.50;;
14994;SDS011;7593;49.006;8.372;2022-08-02T11:22:00;2.70;;;1.52;;
14994;SDS011;7593;49.006;8.372;2022-08-02T11:24:29;4.38;;;1.60;;
14994;SDS011;7593;49.006;8.372;2022-08-02T11:26:57;4.63;;;1.77;;
14994;SDS011;7593;49.006;8.372;2022-08-02T11:29:45;1.65;;;1.30;;
14994;SDS011;7593;49.006;8.372;2022-08-02T11:32:14;2.22;;;1.40;;
14994;SDS011;7593;49.006;8.372;2022-08-02T11:34:44;2.10;;;1.63;;
14994;SDS011;7593;49.006;8.372;2022-08-02T11:37:12;1.67;;;1.45;;
14994;SDS011;7593;49.006;8.372;2022-08-02T11:39:52;3.95;;;1.80;;
14994;SDS011;7593;49.006;8.372;2022-08-02T11:42:20;2.97;;;1.77;;
14994;SDS011;7593;49.006;8.372;2022-08-02T11:44:48;5.90;;;2.00;;
14994;SDS011;7593;49.006;8.372;2022-08-02T11:47:15;3.00;;;1.75;;
14994;SDS011;7593;49.006;8.372;2022-08-02T11:49:44;3.72;;;1.65;;
14994;SDS011;7593;49.006;8.372;2022-08-02T11:52:11;3.20;;;1.83;;
14994;SDS011;7593;49.006;8.372;2022-08-02T11:54:38;2.42;;;1.92;;
14994;SDS011;7593;49.006;8.372;2022-08-02T11:57:08;2.28;;;1.80;;
14994;SDS011;7593;49.006;8.372;2022-08-02T11:59:42;3.42;;;1.70;;
14994;SDS011;7593;49.006;8.372;2022-08-02T12:02:11;2.13;;;1.80;;
14994;SDS011;7593;49.006;8.372;2022-08-02T12:04:39;5.28;;;1.70;;
14994;SDS011;7593;49.006;8.372;2022-08-02T12:07:06;2.28;;;1.60;;
14994;SDS011;7593;49.006;8.372;2022-08-02T12:09:34;1.80;;;1.63;;
14994;SDS011;7593;49.006;8.372;2022-08-02T12:12:02;2.10;;;1.80;;
14994;SDS011;7593;49.006;8.372;2022-08-02T12:14:30;1.95;;;1.70;;
14994;SDS011;7593;49.006;8.372;2022-08-02T12:16:58;2.58;;;1.48;;
14994;SDS011;7593;49.006;8.372;2022-08-02T12:19:46;2.60;;;1.85;;
14994;SDS011;7593;49.006;8.372;2022-08-02T12:22:15;2.13;;;1.90;;
14994;SDS011;7593;49.006;8.372;2022-08-02T12:24:44;5.03;;;1.90;;
14994;SDS011;7593;49.006;8.372;2022-08-02T12:27:32;2.67;;;1.80;;
14994;SDS011;7593;49.006;8.372;2022-08-02T12:30:03;1.90;;;1.80;;
14994;SDS011;7593;49.006;8.372;2022-08-02T12:32:32;2.33;;;1.85;;
14994;SDS011;7593;49.006;8.372;2022-08-02T12:35:00;5.93;;;2.00;;
14994;SDS011;7593;49.006;8.372;2022-08-02T12:37:30;2.05;;;1.80;;
14994;SDS011;7593;49.006;8.372;2022-08-02T12:40:02;3.38;;;2.10;;
14994;SDS011;7593;49.006;8.372;2022-08-02T12:42:44;2.33;;;1.70;;
14994;SDS011;7593;49.006;8.372;2022-08-02T12:45:12;2.03;;;1.77;;
14994;SDS011;7593;49.006;8.372;2022-08-02T12:47:43;3.28;;;1.92;;
14994;SDS011;7593;49.006;8.372;2022-08-02T12:50:13;3.85;;;1.92;;
14994;SDS011;7593;49.006;8.372;2022-08-02T12:52:44;4.03;;;1.88;;
14994;SDS011;7593;49.006;8.372;2022-08-02T12:55:15;3.80;;;1.67;;
14994;SDS011;7593;49.006;8.372;2022-08-02T12:57:50;2.65;;;1.70;;
14994;SDS011;7593;49.006;8.372;2022-08-02T13:00:21;2.63;;;1.60;;
14994;SDS011;7593;49.006;8.372;2022-08-02T13:02:49;3.10;;;1.67;;
14994;SDS011;7593;49.006;8.372;2022-08-02T13:05:17;2.67;;;1.50;;
14994;SDS011;7593;49.006;8.372;2022-08-02T13:07:45;1.80;;;1.40;;
14994;SDS011;7593;49.006;8.372;2022-08-02T13:10:12;4.15;;;3.72;;
14994;SDS011;7593;49.006;8.372;2022-08-02T13:12:39;4.10;;;1.80;;
14994;SDS011;7593;49.006;8.372;2022-08-02T13:15:06;2.03;;;1.63;;
14994;SDS011;7593;49.006;8.372;2022-08-02T13:17:35;3.22;;;1.70;;
14994;SDS011;7593;49.006;8.372;2022-08-02T13:20:02;1.77;;;1.33;;
14994;SDS011;7593;49.006;8.372;2022-08-02T13:22:31;4.10;;;1.67;;
14994;SDS011;7593;49.006;8.372;2022-08-02T13:24:58;1.88;;;1.67;;
14994;SDS011;7593;49.006;8.372;2022-08-02T13:27:25;3.13;;;1.50;;
14994;SDS011;7593;49.006;8.372;2022-08-02T13:29:53;2.08;;;1.25;;
14994;SDS011;7593;49.006;8.372;2022-08-02T13:32:21;2.97;;;1.30;;
14994;SDS011;7593;49.006;8.372;2022-08-02T13:34:49;1.60;;;1.50;;
14994;SDS011;7593;49.006;8.372;2022-08-02T13:37:16;3.25;;;1.73;;
14994;SDS011;7593;49.006;8.372;2022-08-02T13:39:45;5.20;;;1.55;;
14994;SDS011;7593;49.006;8.372;2022-08-02T13:42:12;3.55;;;1.75;;
14994;SDS011;7593;49.006;8.372;2022-08-02T13:44:39;1.85;;;1.65;;
14994;SDS011;7593;49.006;8.372;2022-08-02T13:47:06;1.60;;;1.35;;
14994;SDS011;7593;49.006;8.372;2022-08-02T13:49:35;3.67;;;1.40;;
14994;SDS011;7593;49.006;8.372;2022-08-02T13:52:02;1.55;;;1.42;;
14994;SDS011;7593;49.006;8.372;2022-08-02T13:54:29;2.28;;;1.35;;
14994;SDS011;7593;49.006;8.372;2022-08-02T13:56:58;2.60;;;1.20;;
14994;SDS011;7593;49.006;8.372;2022-08-02T13:59:25;1.42;;;1.27;;
14994;SDS011;7593;49.006;8.372;2022-08-02T14:01:52;1.50;;;1.40;;
14994;SDS011;7593;49.006;8.372;2022-08-02T14:04:20;2.20;;;1.38;;
14994;SDS011;7593;49.006;8.372;2022-08-02T14:06:47;1.60;;;1.50;;
14994;SDS011;7593;49.006;8.372;2022-08-02T14:09:14;2.42;;;1.45;;
14994;SDS011;7593;49.006;8.372;2022-08-02T14:11:40;1.48;;;1.30;;
14994;SDS011;7593;49.006;8.372;2022-08-02T14:14:09;1.55;;;1.33;;
14994;SDS011;7593;49.006;8.372;2022-08-02T14:16:35;22.92;;;2.85;;
14994;SDS011;7593;49.006;8.372;2022-08-02T14:19:02;2.75;;;1.50;;
14994;SDS011;7593;49.006;8.372;2022-08-02T14:21:29;2.58;;;1.58;;
14994;SDS011;7593;49.006;8.372;2022-08-02T14:23:56;9.77;;;2.00;;
14994;SDS011;7593;49.006;8.372;2022-08-02T14:26:23;2.08;;;1.20;;
14994;SDS011;7593;49.006;8.372;2022-08-02T14:28:50;1.70;;;1.40;;
14994;SDS011;7593;49.006;8.372;2022-08-02T14:31:18;2.33;;;1.20;;
14994;SDS011;7593;49.006;8.372;2022-08-02T14:33:45;1.92;;;1.40;;
14994;SDS011;7593;49.006;8.372;2022-08-02T14:36:11;2.75;;;1.45;;
14994;SDS011;7593;49.006;8.372;2022-08-02T14:38:38;2.78;;;1.33;;
14994;SDS011;7593;49.006;8.372;2022-08-02T14:41:05;3.75;;;1.50;;
14994;SDS011;7593;49.006;8.372;2022-08-02T14:43:32;1.55;;;1.40;;
14994;SDS011;7593;49.006;8.372;2022-08-02T14:46:18;2.80;;;2.47;;
14994;SDS011;7593;49.006;8.372;2022-08-02T14:48:48;1.70;;;1.40;;
14994;SDS011;7593;49.006;8.372;2022-08-02T14:51:15;1.40;;;1.30;;
14994;SDS011;7593;49.006;8.372;2022-08-02T14:53:45;1.60;;;1.50;;
14994;SDS011;7593;49.006;8.372;2022-08-02T14:56:12;1.67;;;1.40;;
14994;SDS011;7593;49.006;8.372;2022-08-02T14:58:39;2.22;;;1.48;;
14994;SDS011;7593;49.006;8.372;2022-08-02T15:01:06;1.55;;;1.30;;
14994;SDS011;7593;49.006;8.372;2022-08-02T15:03:34;1.55;;;1.20;;
14994;SDS011;7593;49.006;8.372;2022-08-02T15:06:01;2.92;;;1.33;;
14994;SDS011;7593;49.006;8.372;2022-08-02T15:08:27;2.63;;;1.38;;
14994;SDS011;7593;49.006;8.372;2022-08-02T15:10:54;2.35;;;1.23;;
14994;SDS011;7593;49.006;8.372;2022-08-02T15:13:21;1.85;;;1.42;;
14994;SDS011;7593;49.006;8.372;2022-08-02T15:15:48;2.65;;;1.33;;
14994;SDS011;7593;49.006;8.372;2022-08-02T15:18:15;1.45;;;1.23;;